Time;durP1;ratioP1;P1;durP2;ratioP2;P2;SDS_P1;SDS_P2;PMS_P1;PMS_P2;Temp;Humidity;BMP_temperature;BMP_pressure;BME280_temperature;BME280_humidity;BME280_pressure;Samples;Min_cycle;Max_cycle;Signal;HPM_P1;HPM_P2
2022/01/28 00:00:40;;;;;;;3.27;3.07;;;;;;;4.04;98.93;96270.84;4321370;33;20293;-66
2022/01/28 00:03:10;;;;;;;2.90;2.70;;;;;;;4.08;98.84;96272.00;4316373;33;20298;-66
2022/01/28 00:05:54;;;;;;;3.90;3.63;;;;;;;3.97;99.09;96269.34;4364796;32;20281;-65
2022/01/28 00:08:22;;;;;;;3.40;3.20;;;;;;;3.88;99.24;96282.03;4371563;32;20293;-65
2022/01/28 00:10:51;;;;;;;3.50;3.30;;;;;;;3.99;98.67;96280.44;4338282;32;20296;-65
2022/01/28 00:16:59;;;;;;;3.53;3.23;;;;;;;4.03;98.26;96295.50;4305108;32;20374;-67
2022/01/28 00:38:36;;;;;;;3.40;3.20;;;;;;;4.10;97.93;96305.91;4368280;32;20303;-66
2022/01/28 00:41:22;;;;;;;3.70;3.50;;;;;;;4.20;97.38;96315.81;4379197;32;20315;-67
2022/01/28 00:43:49;;;;;;;3.93;3.63;;;;;;;4.20;96.84;96305.31;4327824;32;20289;-67
2022/01/28 00:46:15;;;;;;;4.33;3.93;;;;;;;4.10;97.07;96301.47;4355106;32;20328;-67
2022/01/28 00:48:41;;;;;;;3.60;3.40;;;;;;;4.16;97.22;96312.84;4363496;32;20272;-65
2022/01/28 00:51:12;;;;;;;3.80;3.57;;;;;;;4.08;97.25;96321.88;4360659;32;20291;-67
2022/01/28 00:53:39;;;;;;;3.60;3.30;;;;;;;4.18;97.55;96317.88;4344211;32;20191;-67
2022/01/28 00:56:07;;;;;;;3.57;3.37;;;;;;;4.16;97.09;96315.47;4378747;32;20370;-67
2022/01/28 00:58:36;;;;;;;3.07;2.87;;;;;;;4.02;96.85;96314.91;4366562;32;20397;-67
2022/01/28 01:01:02;;;;;;;3.23;3.03;;;;;;;4.06;96.92;96321.31;4380526;32;20327;-67
2022/01/28 01:03:28;;;;;;;3.13;2.93;;;;;;;4.05;96.95;96319.72;4361948;32;20281;-67
2022/01/28 01:05:55;;;;;;;3.47;3.27;;;;;;;3.95;97.07;96332.56;4389160;32;20231;-67
2022/01/28 01:08:22;;;;;;;3.20;3.00;;;;;;;3.97;97.14;96321.84;4361348;32;20277;-67
2022/01/28 01:10:52;;;;;;;3.57;3.23;;;;;;;3.94;96.59;96331.00;4355538;32;20287;-67
2022/01/28 01:13:19;;;;;;;3.80;3.50;;;;;;;3.91;96.76;96333.28;4354432;32;20272;-67
2022/01/28 01:15:52;;;;;;;3.87;3.67;;;;;;;3.89;96.63;96336.13;4365681;32;20413;-67
2022/01/28 01:18:30;;;;;;;4.53;4.13;;;;;;;3.98;96.75;96324.25;4359330;32;20265;-67
2022/01/28 01:21:18;;;;;;;3.70;3.50;;;;;;;3.95;95.63;96337.06;4367250;32;20406;-67
2022/01/28 01:23:53;;;;;;;3.70;3.50;;;;;;;3.90;95.98;96348.22;4375526;32;20276;-67
2022/01/28 01:26:32;;;;;;;4.17;3.87;;;;;;;3.93;95.85;96353.03;4365488;32;20364;-67
2022/01/28 01:29:00;;;;;;;4.30;3.90;;;;;;;3.89;95.63;96356.31;4359110;32;20292;-67
2022/01/28 01:31:27;;;;;;;4.03;3.73;;;;;;;3.93;95.39;96367.97;4355480;32;20288;-67
2022/01/28 01:36:28;;;;;;;4.60;4.20;;;;;;;3.83;95.69;96358.00;4309340;32;20301;-67
2022/01/28 01:38:59;;;;;;;4.70;4.30;;;;;;;3.89;95.33;96356.31;4361561;32;20370;-67
2022/01/28 01:41:40;;;;;;;4.50;4.20;;;;;;;3.73;95.46;96350.72;4351628;32;20328;-67
2022/01/28 01:44:22;;;;;;;4.07;3.77;;;;;;;3.80;95.28;96353.22;4311057;32;20326;-67
2022/01/28 01:52:59;;;;;;;4.87;4.23;;;;;;;3.74;94.50;96349.66;4328134;32;20303;-67
2022/01/28 01:55:27;;;;;;;4.57;4.27;;;;;;;3.66;95.04;96354.44;4358942;32;20334;-67
2022/01/28 01:57:54;;;;;;;5.60;5.10;;;;;;;3.52;95.05;96360.91;4344281;32;20293;-67
2022/01/28 02:00:20;;;;;;;4.67;4.33;;;;;;;3.58;94.63;96367.84;4342896;32;20293;-67
2022/01/28 02:02:45;;;;;;;5.33;4.93;;;;;;;3.65;94.08;96371.19;4347059;32;20285;-67
2022/01/28 02:05:14;;;;;;;5.37;4.97;;;;;;;3.69;93.74;96369.75;4369645;32;20185;-65
2022/01/28 02:07:39;;;;;;;4.70;4.30;;;;;;;3.59;93.73;96372.09;4344772;32;20194;-67
2022/01/28 02:10:21;;;;;;;4.83;4.43;;;;;;;3.70;93.99;96384.47;4360032;32;20299;-67
2022/01/28 02:12:52;;;;;;;5.27;4.67;;;;;;;3.52;93.65;96393.19;4373867;32;20308;-67
2022/01/28 02:15:19;;;;;;;4.63;4.30;;;;;;;3.71;92.84;96388.69;4321628;32;20364;-67
2022/01/28 02:17:46;;;;;;;4.37;4.07;;;;;;;3.58;92.20;96389.66;4376996;32;20330;-67
2022/01/28 02:20:29;;;;;;;4.57;4.20;;;;;;;3.66;92.22;96389.34;4386836;32;20299;-67
2022/01/28 02:23:04;;;;;;;4.80;4.40;;;;;;;3.72;90.91;96388.47;4367224;32;20331;-67
2022/01/28 02:25:41;;;;;;;5.00;4.50;;;;;;;3.72;91.15;96398.97;4355622;32;20335;-67
2022/01/28 02:28:31;;;;;;;5.27;4.87;;;;;;;3.68;91.54;96399.62;4365003;32;20331;-67
2022/01/28 02:30:57;;;;;;;6.83;4.30;;;;;;;3.64;91.95;96414.19;4364603;32;20386;-67
2022/01/28 02:33:25;;;;;;;4.90;4.50;;;;;;;3.69;91.72;96409.09;4381790;32;20281;-67
2022/01/28 02:35:51;;;;;;;4.47;4.07;;;;;;;3.59;91.60;96408.81;4374427;32;20301;-67
2022/01/28 02:38:21;;;;;;;5.50;5.10;;;;;;;3.58;92.22;96415.06;4362645;32;20311;-68
2022/01/28 02:41:14;;;;;;;4.97;4.57;;;;;;;3.55;92.39;96402.41;4349802;32;20250;-67
2022/01/28 02:43:57;;;;;;;5.20;4.80;;;;;;;3.76;91.65;96412.41;4356824;32;20354;-67
2022/01/28 02:46:32;;;;;;;5.70;5.10;;;;;;;3.54;92.39;96424.41;4366726;32;20284;-67
2022/01/28 02:49:07;;;;;;;7.93;5.47;;;;;;;3.56;92.84;96427.59;4366838;32;20341;-67
2022/01/28 02:51:35;;;;;;;5.30;4.90;;;;;;;3.57;92.58;96424.78;4373408;32;20273;-67
2022/01/28 02:54:17;;;;;;;5.20;4.70;;;;;;;3.73;91.96;96428.63;4361362;32;20278;-67
2022/01/28 02:57:05;;;;;;;5.17;4.77;;;;;;;3.69;91.53;96441.37;4348901;32;20281;-67
2022/01/28 02:59:33;;;;;;;6.03;5.43;;;;;;;3.67;92.35;96432.91;4345045;32;20343;-67
2022/01/28 03:01:58;;;;;;;5.43;5.03;;;;;;;3.59;92.16;96435.03;4350719;32;20276;-67
2022/01/28 03:06:51;;;;;;;5.07;4.67;;;;;;;3.66;91.63;96447.06;4356723;32;20192;-67
2022/01/28 03:09:20;;;;;;;5.43;5.00;;;;;;;3.64;92.08;96437.81;4355137;32;20285;-67
2022/01/28 03:12:11;;;;;;;5.40;4.90;;;;;;;3.73;91.54;96441.75;4375236;32;20280;-66
2022/01/28 03:14:58;;;;;;;5.10;4.60;;;;;;;3.61;91.91;96448.75;4338221;32;20276;-66
2022/01/28 03:22:53;;;;;;;5.23;4.80;;;;;;;3.61;91.61;96448.75;4366918;32;20278;-66
2022/01/28 03:25:20;;;;;;;5.00;4.67;;;;;;;3.72;91.55;96445.38;4329009;32;20391;-67
2022/01/28 03:27:58;;;;;;;4.77;4.37;;;;;;;3.72;91.64;96450.63;4335849;32;20381;-66
2022/01/28 03:30:25;;;;;;;5.53;5.13;;;;;;;3.75;91.97;96447.53;4352515;32;20272;-67
2022/01/28 03:32:51;;;;;;;5.57;5.17;;;;;;;3.52;92.61;96442.22;4353341;32;20276;-67
2022/01/28 03:35:36;;;;;;;5.23;4.73;;;;;;;3.71;92.37;96446.41;4387276;32;20286;-67
2022/01/28 03:38:21;;;;;;;5.93;5.33;;;;;;;3.64;92.46;96462.22;4371719;32;20296;-67
2022/01/28 03:40:54;;;;;;;5.47;4.97;;;;;;;3.52;92.95;96458.75;4354728;32;20299;-67
2022/01/28 03:43:28;;;;;;;5.40;4.87;;;;;;;3.57;92.87;96460.69;4361088;32;20199;-67
2022/01/28 03:45:54;;;;;;;6.63;5.67;;;;;;;3.67;92.52;96479.34;4370055;32;20318;-67
2022/01/28 03:48:20;;;;;;;5.40;4.90;;;;;;;3.54;93.07;96485.53;4362113;32;20280;-67
2022/01/28 03:50:50;;;;;;;5.40;5.00;;;;;;;3.61;93.29;96475.78;4359344;32;20219;-67
2022/01/28 03:53:16;;;;;;;4.80;4.40;;;;;;;3.74;93.09;96480.06;4351193;32;20350;-67
2022/01/28 03:55:45;;;;;;;5.03;4.60;;;;;;;3.64;92.69;96477.16;4392427;32;20299;-66
2022/01/28 03:58:17;;;;;;;5.23;4.83;;;;;;;3.54;92.95;96479.50;4343144;32;20193;-67
2022/01/28 04:00:42;;;;;;;5.27;4.77;;;;;;;3.53;92.23;96480.53;4352607;32;20283;-67
2022/01/28 04:03:37;;;;;;;4.50;4.13;;;;;;;3.54;92.05;96490.78;4381894;32;20358;-67
2022/01/28 04:11:37;;;;;;;4.67;4.33;;;;;;;3.90;89.75;96500.44;4328374;32;20368;-67
2022/01/28 04:14:13;;;;;;;4.73;4.30;;;;;;;3.82;90.42;96498.12;4366783;32;20268;-68
2022/01/28 04:19:27;;;;;;;5.07;4.60;;;;;;;3.72;90.71;96496.03;4363109;32;20299;-68
2022/01/28 04:21:55;;;;;;;3.80;3.50;;;;;;;3.66;90.95;96483.00;4350799;32;20359;-67
2022/01/28 04:24:25;;;;;;;4.70;4.30;;;;;;;3.76;91.43;96481.44;4320445;32;20349;-67
2022/01/28 04:26:51;;;;;;;5.00;4.40;;;;;;;3.75;90.63;96497.41;4370618;32;20279;-67
2022/01/28 04:29:19;;;;;;;4.70;4.30;;;;;;;3.66;91.40;96493.50;4343432;32;20337;-67
2022/01/28 04:31:47;;;;;;;4.27;3.97;;;;;;;3.52;91.78;96498.09;4375087;32;20279;-66
2022/01/28 04:34:17;;;;;;;5.03;4.63;;;;;;;3.49;92.74;96508.22;4360717;32;20328;-67
2022/01/28 04:37:39;;;;;;;4.77;4.37;;;;;;;3.66;92.14;96514.47;4345103;32;20293;-69
2022/01/28 04:45:52;;;;;;;4.67;4.13;;;;;;;3.69;92.45;96524.53;4312413;32;20381;-67
2022/01/28 04:50:53;;;;;;;5.17;4.70;;;;;;;3.67;92.26;96527.38;4361186;32;20323;-67
2022/01/28 04:53:39;;;;;;;4.50;4.20;;;;;;;3.57;93.15;96516.59;4364611;32;20283;-67
2022/01/28 05:05:05;;;;;;;4.93;4.50;;;;;;;3.66;92.69;96524.97;4310537;32;20304;-67
2022/01/28 05:07:58;;;;;;;5.10;4.60;;;;;;;3.92;91.30;96522.03;4335981;32;20440;-67
2022/01/28 05:26:39;;;;;;;5.20;4.30;;;;;;;3.55;92.30;96515.19;4333887;32;20291;-68
2022/01/28 05:29:08;;;;;;;4.73;4.33;;;;;;;3.67;91.42;96510.84;4379958;32;20314;-66
2022/01/28 05:31:34;;;;;;;3.77;3.57;;;;;;;3.65;91.19;96512.88;4350347;32;20318;-67
2022/01/28 05:34:00;;;;;;;4.63;4.33;;;;;;;3.59;91.02;96511.13;4334688;32;20288;-66
2022/01/28 05:36:28;;;;;;;5.10;4.60;;;;;;;3.71;90.47;96506.75;4364589;32;20216;-67
2022/01/28 05:38:55;;;;;;;4.87;3.93;;;;;;;3.62;91.04;96523.78;4374032;32;20295;-66
2022/01/28 05:41:22;;;;;;;4.10;3.80;;;;;;;3.65;90.87;96520.75;4370871;32;20284;-66
2022/01/28 05:43:50;;;;;;;3.97;3.67;;;;;;;3.54;90.76;96537.19;4374735;32;20357;-66
2022/01/28 05:46:17;;;;;;;4.03;3.73;;;;;;;3.57;91.20;96540.19;4372047;32;20249;-66
2022/01/28 05:48:43;;;;;;;4.80;4.40;;;;;;;3.59;91.14;96542.59;4359110;32;20281;-66
2022/01/28 05:51:15;;;;;;;5.13;4.63;;;;;;;3.39;91.63;96541.00;4365235;32;20296;-65
2022/01/28 05:53:43;;;;;;;5.20;4.70;;;;;;;3.51;91.63;96540.28;4357175;32;20272;-66
2022/01/28 05:56:09;;;;;;;4.37;4.07;;;;;;;3.48;91.72;96554.63;4347078;32;20322;-67
2022/01/28 05:58:35;;;;;;;4.80;4.30;;;;;;;3.57;91.71;96557.75;4347975;32;20397;-66
2022/01/28 06:01:12;;;;;;;5.10;4.30;;;;;;;3.50;92.02;96543.91;4341033;32;20275;-66
2022/01/28 06:03:39;;;;;;;4.43;4.03;;;;;;;3.51;91.93;96545.53;4329079;32;20281;-66
2022/01/28 06:06:13;;;;;;;4.87;4.47;;;;;;;3.49;92.12;96560.69;4363756;32;20345;-67
2022/01/28 06:08:41;;;;;;;4.37;4.00;;;;;;;3.41;93.17;96553.88;4346369;32;20273;-66
2022/01/28 06:11:08;;;;;;;4.63;4.23;;;;;;;3.25;93.34;96547.38;4350617;32;20300;-66
2022/01/28 06:13:34;;;;;;;4.93;4.53;;;;;;;3.29;92.58;96561.69;4366727;32;20346;-67
2022/01/28 06:16:22;;;;;;;4.10;3.80;;;;;;;3.50;91.83;96585.87;4377276;32;20210;-66
2022/01/28 06:18:47;;;;;;;4.33;4.03;;;;;;;3.32;92.46;96590.09;4375031;32;20290;-66
2022/01/28 06:21:16;;;;;;;4.60;4.20;;;;;;;3.44;92.35;96587.56;4363582;32;20285;-66
2022/01/28 06:23:43;;;;;;;4.80;4.40;;;;;;;3.52;91.12;96583.84;4356522;32;20193;-66
2022/01/28 06:26:11;;;;;;;3.83;3.50;;;;;;;3.55;90.92;96612.25;4362677;32;20285;-67
2022/01/28 06:28:39;;;;;;;5.23;3.70;;;;;;;3.70;89.82;96599.59;4348076;32;20289;-67
2022/01/28 06:31:31;;;;;;;4.90;3.43;;;;;;;3.64;89.46;96621.47;4333893;32;20369;-66
2022/01/28 06:33:57;;;;;;;3.80;3.47;;;;;;;3.61;88.85;96625.31;4350672;32;20354;-67
2022/01/28 06:36:25;;;;;;;4.43;3.93;;;;;;;3.55;88.57;96625.37;4373141;32;20300;-66
2022/01/28 06:38:50;;;;;;;4.37;4.00;;;;;;;3.48;89.26;96628.06;4364427;32;20283;-68
2022/01/28 06:41:17;;;;;;;4.30;4.00;;;;;;;3.49;89.25;96639.37;4371181;32;20362;-66
2022/01/28 06:43:42;;;;;;;4.47;3.90;;;;;;;3.59;88.26;96637.03;4370873;32;20200;-66
2022/01/28 06:46:09;;;;;;;4.37;3.97;;;;;;;3.56;88.39;96646.13;4388372;32;20280;-67
2022/01/28 06:48:37;;;;;;;3.90;3.43;;;;;;;3.50;88.57;96639.16;4371644;32;20335;-67
2022/01/28 06:51:15;;;;;;;4.00;3.70;;;;;;;3.56;88.54;96635.66;4365514;32;20377;-66
2022/01/28 06:53:42;;;;;;;4.43;4.07;;;;;;;3.42;88.52;96637.59;4342199;32;20285;-66
2022/01/28 06:56:09;;;;;;;4.03;3.63;;;;;;;3.52;88.04;96638.94;4366162;32;20367;-66
2022/01/28 06:58:34;;;;;;;4.10;3.80;;;;;;;3.50;88.93;96640.97;4366428;32;20296;-66
2022/01/28 07:01:00;;;;;;;4.20;3.90;;;;;;;3.47;88.90;96641.41;4361211;32;20281;-66
2022/01/28 07:03:30;;;;;;;4.80;4.07;;;;;;;3.62;87.99;96647.09;4353461;32;20269;-66
2022/01/28 07:06:00;;;;;;;4.70;4.30;;;;;;;3.68;88.13;96648.88;4360051;32;20323;-66
2022/01/28 07:08:28;;;;;;;3.67;3.40;;;;;;;3.66;88.31;96646.47;4374890;32;20280;-66
2022/01/28 07:10:55;;;;;;;6.43;4.23;;;;;;;3.37;89.20;96655.78;4369056;32;20347;-66
2022/01/28 07:13:23;;;;;;;4.70;4.30;;;;;;;3.51;89.54;96650.44;4361987;32;20293;-65
2022/01/28 07:15:51;;;;;;;10.10;5.43;;;;;;;3.53;89.32;96653.66;4363965;32;20308;-64
2022/01/28 07:18:21;;;;;;;5.00;4.20;;;;;;;4.58;95.45;96652.47;4340047;32;20303;-64
2022/01/28 07:20:47;;;;;;;8.40;5.40;;;;;;;4.89;92.71;96661.16;4367618;32;20334;-65
2022/01/28 07:23:12;;;;;;;6.30;4.20;;;;;;;4.98;91.53;96665.09;4365028;32;20303;-64
2022/01/28 07:25:39;;;;;;;4.77;3.40;;;;;;;5.05;90.18;96657.91;4367480;32;20280;-64
2022/01/28 07:28:05;;;;;;;4.03;3.67;;;;;;;5.31;87.92;96662.75;4346826;32;20199;-64
2022/01/28 07:30:32;;;;;;;4.10;3.47;;;;;;;5.35;87.03;96666.56;4352145;32;20376;-64
2022/01/28 07:33:00;;;;;;;3.83;3.53;;;;;;;5.67;88.55;96669.66;4360796;32;20276;-65
2022/01/28 07:35:26;;;;;;;4.03;3.20;;;;;;;5.65;84.41;96666.44;4368790;32;20193;-65
2022/01/28 07:37:54;;;;;;;4.17;3.73;;;;;;;6.08;84.94;96676.66;4345338;32;20411;-65
2022/01/28 07:40:21;;;;;;;3.47;3.17;;;;;;;5.83;82.14;96676.06;4376608;32;20277;-64
2022/01/28 07:42:47;;;;;;;6.10;3.97;;;;;;;5.86;82.65;96678.25;4346720;32;20323;-64
2022/01/28 07:45:15;;;;;;;3.70;3.40;;;;;;;5.79;82.25;96678.37;4366035;32;20314;-64
2022/01/28 07:47:40;;;;;;;3.90;3.60;;;;;;;5.56;82.52;96675.72;4345325;32;20298;-63
2022/01/28 07:50:09;;;;;;;4.77;3.60;;;;;;;5.53;83.25;96673.53;4362885;32;20281;-64
2022/01/28 07:52:35;;;;;;;3.80;3.50;;;;;;;5.49;83.70;96686.34;4386387;32;20223;-64
2022/01/28 07:55:01;;;;;;;5.70;3.60;;;;;;;5.85;83.41;96677.44;4357519;32;20356;-64
2022/01/28 07:57:27;;;;;;;3.97;3.53;;;;;;;6.00;81.64;96684.13;4361542;32;20328;-64
2022/01/28 07:59:54;;;;;;;3.70;3.47;;;;;;;6.10;81.05;96685.13;4357479;32;20256;-64
2022/01/28 08:02:20;;;;;;;3.50;3.20;;;;;;;6.15;80.15;96693.16;4372185;32;20280;-64
2022/01/28 08:04:48;;;;;;;3.77;3.47;;;;;;;6.63;79.32;96694.66;4380480;32;20296;-63
2022/01/28 08:07:15;;;;;;;3.77;3.23;;;;;;;6.46;78.19;96693.75;4373772;32;20322;-64
2022/01/28 08:09:41;;;;;;;3.67;3.37;;;;;;;6.36;78.95;96694.38;4367378;32;20307;-63
2022/01/28 08:12:13;;;;;;;4.03;3.63;;;;;;;6.15;79.31;96698.41;4386364;32;20284;-64
2022/01/28 08:14:39;;;;;;;3.73;2.87;;;;;;;6.07;80.08;96709.28;4380621;32;20189;-63
2022/01/28 08:17:06;;;;;;;4.17;3.77;;;;;;;6.55;79.73;96713.47;4367982;32;20348;-67
2022/01/28 08:19:32;;;;;;;3.83;3.50;;;;;;;5.60;79.81;96712.94;4377817;32;20401;-68
2022/01/28 08:22:03;;;;;;;4.70;4.30;;;;;;;4.83;82.88;96718.88;4321509;32;20281;-68
2022/01/28 08:24:28;;;;;;;4.30;3.90;;;;;;;4.40;85.53;96726.06;4357655;32;20264;-67
2022/01/28 08:26:54;;;;;;;4.63;3.80;;;;;;;3.97;87.64;96726.91;4358839;32;20397;-66
2022/01/28 08:29:25;;;;;;;5.10;4.60;;;;;;;3.97;88.69;96729.53;4376667;32;20185;-67
2022/01/28 08:31:57;;;;;;;4.53;3.80;;;;;;;4.06;88.02;96732.69;4365782;32;20304;-67
2022/01/28 08:34:24;;;;;;;7.03;4.50;;;;;;;3.95;87.38;96728.16;4362607;32;20315;-69
2022/01/28 08:36:51;;;;;;;18.60;3.60;;;;;;;4.27;89.09;96723.59;4353415;32;20320;-53
2022/01/28 08:39:18;;;;;;;18.17;3.47;;;;;;;10.50;78.46;96703.69;4333030;32;20308;-56
2022/01/28 08:41:44;;;;;;;6.20;2.43;;;;;;;12.01;65.53;96721.03;4358174;32;20281;-57
2022/01/28 08:44:10;;;;;;;10.13;2.63;;;;;;;14.22;54.67;96722.06;4372324;32;20314;-55
2022/01/28 08:46:36;;;;;;;12.40;2.23;;;;;;;14.98;50.66;96717.78;4361108;32;20189;-57
2022/01/28 08:49:03;;;;;;;4.30;2.37;;;;;;;15.48;48.09;96718.97;4358467;32;20263;-56
2022/01/28 08:51:28;;;;;;;3.07;2.77;;;;;;;15.26;47.52;96724.09;4376352;32;20227;-68
2022/01/28 08:53:55;;;;;;;3.17;2.83;;;;;;;12.43;50.30;96738.53;4336665;32;20289;-68
2022/01/28 08:56:20;;;;;;;2.97;2.63;;;;;;;10.05;57.11;96746.59;4352587;32;20188;-68
2022/01/28 08:58:46;;;;;;;3.93;2.70;;;;;;;8.18;63.86;96754.06;4371096;32;20285;-69
2022/01/28 09:01:12;;;;;;;2.93;2.67;;;;;;;6.36;71.04;96759.47;4356272;32;20207;-67
2022/01/28 09:03:38;;;;;;;4.20;3.00;;;;;;;5.94;74.07;96767.47;4351642;32;20360;-68
2022/01/28 09:06:13;;;;;;;4.23;3.10;;;;;;;5.13;77.47;96758.31;4326548;32;20189;-68
2022/01/28 09:08:40;;;;;;;2.80;2.60;;;;;;;4.92;79.40;96765.91;4360066;32;20299;-68
2022/01/28 09:11:31;;;;;;;3.20;2.90;;;;;;;4.64;81.31;96761.97;4349931;32;20304;-68
2022/01/28 09:13:55;;;;;;;3.33;3.07;;;;;;;4.47;81.57;96763.56;4339250;32;20281;-68
2022/01/28 09:16:23;;;;;;;5.90;3.60;;;;;;;4.32;83.27;96760.50;4323842;32;20308;-68
2022/01/28 09:18:51;;;;;;;4.17;2.70;;;;;;;4.39;83.58;96763.84;4363612;32;20269;-68
2022/01/28 09:21:20;;;;;;;3.40;3.10;;;;;;;4.06;84.93;96767.63;4353846;32;20330;-68
2022/01/28 09:23:47;;;;;;;5.67;3.43;;;;;;;3.97;85.26;96770.72;4370259;32;20284;-68
2022/01/28 09:26:15;;;;;;;5.37;3.63;;;;;;;3.91;86.13;96761.91;4372630;32;20277;-67
2022/01/28 09:28:42;;;;;;;6.10;3.03;;;;;;;4.08;85.76;96749.84;4369660;32;20284;-68
2022/01/28 09:31:10;;;;;;;4.07;3.30;;;;;;;4.25;85.03;96765.03;4368166;32;20307;-68
2022/01/28 09:33:37;;;;;;;6.20;4.10;;;;;;;4.25;85.32;96765.81;4331524;32;20277;-67
2022/01/28 09:36:10;;;;;;;3.80;3.30;;;;;;;4.24;84.96;96774.72;4374970;32;20295;-68
2022/01/28 09:38:35;;;;;;;3.80;3.50;;;;;;;4.14;85.50;96762.09;4368780;32;20376;-68
2022/01/28 09:41:10;;;;;;;3.23;2.93;;;;;;;4.27;85.02;96770.88;4347146;32;20364;-68
2022/01/28 09:43:43;;;;;;;7.20;3.20;;;;;;;4.34;84.50;96768.97;4358031;32;20253;-68
2022/01/28 09:46:13;;;;;;;3.73;2.93;;;;;;;4.21;85.22;96776.97;4377126;32;20281;-67
2022/01/28 09:48:49;;;;;;;6.10;3.60;;;;;;;4.17;84.49;96781.03;4350774;32;20356;-68
2022/01/28 09:51:14;;;;;;;3.90;2.77;;;;;;;4.26;83.81;96774.50;4362019;32;20292;-68
2022/01/28 09:53:44;;;;;;;3.17;2.93;;;;;;;4.26;83.87;96769.25;4366745;32;20204;-68
2022/01/28 09:56:13;;;;;;;4.70;3.03;;;;;;;4.19;84.14;96776.37;4324056;32;20250;-66
2022/01/28 09:58:43;;;;;;;3.33;3.03;;;;;;;4.04;84.63;96782.78;4359062;32;20276;-67
2022/01/28 10:01:09;;;;;;;3.37;3.07;;;;;;;4.27;82.76;96781.38;4374566;32;20315;-68
2022/01/28 10:03:36;;;;;;;2.97;2.77;;;;;;;4.12;83.37;96782.53;4336606;32;20369;-68
2022/01/28 10:06:03;;;;;;;6.83;3.53;;;;;;;4.29;82.50;96779.31;4363369;32;20288;-68
2022/01/28 10:08:53;;;;;;;3.70;3.10;;;;;;;4.33;82.80;96776.06;4353656;32;20276;-68
2022/01/28 10:11:19;;;;;;;6.43;3.00;;;;;;;4.39;82.28;96771.75;4370184;32;20364;-68
2022/01/28 10:13:52;;;;;;;3.37;3.00;;;;;;;4.36;82.39;96775.63;4379390;32;20410;-67
2022/01/28 10:16:30;;;;;;;3.10;2.90;;;;;;;4.39;82.66;96774.34;4349542;32;20349;-64
2022/01/28 10:19:08;;;;;;;4.53;2.57;;;;;;;4.30;82.17;96778.31;4350650;32;20355;-66
2022/01/28 10:21:46;;;;;;;5.33;2.73;;;;;;;4.40;81.58;96774.16;4326024;32;20332;-65
2022/01/28 10:24:15;;;;;;;3.97;2.73;;;;;;;4.44;80.61;96791.09;4304691;32;20282;-64
2022/01/28 10:27:09;;;;;;;3.87;2.73;;;;;;;4.35;81.18;96775.84;4302913;32;20301;-64
2022/01/28 10:29:43;;;;;;;3.33;2.93;;;;;;;4.21;81.19;96771.72;4335480;32;20372;-63
2022/01/28 10:32:20;;;;;;;5.23;2.97;;;;;;;4.39;81.29;96774.34;4331915;32;20297;-63
2022/01/28 10:34:52;;;;;;;3.73;2.83;;;;;;;4.45;80.90;96776.13;4336093;32;20295;-63
2022/01/28 10:37:32;;;;;;;3.47;3.17;;;;;;;4.31;80.63;96769.41;4332596;32;20281;-67
2022/01/28 10:39:59;;;;;;;4.90;2.90;;;;;;;4.38;80.26;96778.00;4323004;32;20310;-63
2022/01/28 10:43:01;;;;;;;3.03;2.40;;;;;;;4.43;79.90;96778.97;4326000;32;20290;-65
2022/01/28 10:45:32;;;;;;;2.93;2.47;;;;;;;4.48;80.14;96789.63;4282671;33;20358;-67
2022/01/28 10:47:59;;;;;;;4.27;2.60;;;;;;;4.33;80.51;96791.00;4343691;32;20284;-64
2022/01/28 10:50:38;;;;;;;3.80;3.20;;;;;;;4.43;79.17;96786.03;4304855;32;20320;-67
2022/01/28 10:53:15;;;;;;;4.57;2.50;;;;;;;4.40;79.72;96779.41;4320575;32;20348;-62
2022/01/28 10:55:49;;;;;;;3.80;2.37;;;;;;;4.40;80.14;96783.84;4357504;32;20306;-64
2022/01/28 10:58:18;;;;;;;2.97;2.70;;;;;;;4.51;79.74;96790.22;4299490;32;20289;-64
2022/01/28 11:00:48;;;;;;;5.23;3.27;;;;;;;4.64;79.09;96790.88;4326278;32;20308;-65
2022/01/28 11:03:26;;;;;;;2.90;2.57;;;;;;;4.74;77.41;96790.38;4324227;32;20292;-63
2022/01/28 11:05:58;;;;;;;5.30;2.53;;;;;;;4.61;78.60;96790.50;4299747;32;20296;-62
2022/01/28 11:08:29;;;;;;;6.20;2.80;;;;;;;4.86;77.60;96788.59;4327975;32;20284;-62
2022/01/28 11:10:57;;;;;;;3.57;2.10;;;;;;;4.95;77.60;96783.84;4331047;32;20278;-62
2022/01/28 11:13:23;;;;;;;2.83;2.33;;;;;;;5.10;76.50;96779.00;4307137;32;20297;-62
2022/01/28 11:15:50;;;;;;;4.70;2.50;;;;;;;5.15;75.35;96781.78;4324217;32;20281;-63
2022/01/28 11:18:21;;;;;;;7.77;2.63;;;;;;;5.06;75.97;96778.66;4325415;32;20294;-63
2022/01/28 11:21:14;;;;;;;2.90;2.30;;;;;;;5.11;75.77;96783.25;4311419;32;20343;-63
2022/01/28 11:24:15;;;;;;;3.33;1.70;;;;;;;5.02;76.41;96779.31;4341028;32;20348;-63
2022/01/28 11:26:54;;;;;;;4.60;2.10;;;;;;;5.17;74.01;96782.38;4335109;32;20413;-63
2022/01/28 11:29:27;;;;;;;4.53;2.20;;;;;;;5.05;74.10;96786.75;4331267;32;20281;-64
2022/01/28 11:31:56;;;;;;;3.00;1.93;;;;;;;5.09;73.30;96782.66;4320682;32;20291;-63
2022/01/28 11:34:31;;;;;;;3.17;1.93;;;;;;;5.18;73.46;96783.97;4356659;32;20355;-63
2022/01/28 11:37:02;;;;;;;3.87;1.87;;;;;;;5.14;72.67;96786.25;4350835;32;20327;-63
2022/01/28 11:39:37;;;;;;;2.37;1.97;;;;;;;5.05;72.58;96786.75;4308849;32;20291;-63
2022/01/28 11:42:10;;;;;;;1.77;1.67;;;;;;;5.28;71.98;96794.75;4353232;32;20371;-63
2022/01/28 11:44:44;;;;;;;2.53;1.80;;;;;;;5.28;71.83;96792.13;4348054;32;20368;-63
2022/01/28 11:47:19;;;;;;;1.73;1.43;;;;;;;5.35;71.60;96786.78;4351906;32;20283;-63
2022/01/28 11:50:08;;;;;;;3.10;1.80;;;;;;;5.34;72.07;96779.91;4308741;32;20308;-64
2022/01/28 11:52:58;;;;;;;4.30;1.80;;;;;;;5.20;72.60;96783.75;4327453;32;20278;-63
2022/01/28 11:55:31;;;;;;;2.13;1.70;;;;;;;5.36;72.19;96778.66;4321889;32;20300;-64
2022/01/28 11:58:13;;;;;;;2.43;2.00;;;;;;;5.46;72.50;96773.62;4319175;32;20289;-63
2022/01/28 12:00:47;;;;;;;4.17;1.90;;;;;;;5.59;71.26;96763.97;4298514;32;20282;-63
2022/01/28 12:03:26;;;;;;;2.00;1.80;;;;;;;5.52;71.28;96778.00;4346306;32;20281;-63
2022/01/28 12:05:57;;;;;;;3.33;1.60;;;;;;;5.66;71.16;96775.16;4335207;32;20315;-62
2022/01/28 12:08:31;;;;;;;8.87;2.33;;;;;;;5.41;70.80;96781.41;4334158;32;20289;-62
2022/01/28 12:11:01;;;;;;;3.07;1.60;;;;;;;5.21;72.30;96786.13;4332999;32;20328;-63
2022/01/28 12:13:48;;;;;;;2.77;1.70;;;;;;;5.44;71.31;96783.59;4330532;32;20403;-64
2022/01/28 12:16:26;;;;;;;3.07;1.70;;;;;;;5.50;71.08;96785.31;4320802;32;20273;-62
2022/01/28 12:18:55;;;;;;;6.00;1.87;;;;;;;5.24;70.93;96783.06;4340527;32;20284;-62
2022/01/28 12:21:22;;;;;;;3.80;1.77;;;;;;;5.41;71.39;96781.41;4330893;32;20297;-63
2022/01/28 12:23:49;;;;;;;2.67;1.73;;;;;;;5.57;72.92;96782.59;4285555;32;20289;-63
2022/01/28 12:26:20;;;;;;;3.43;1.80;;;;;;;5.74;71.33;96780.12;4293234;32;20282;-63
2022/01/28 12:29:03;;;;;;;3.23;1.60;;;;;;;5.46;70.24;96789.44;4305456;32;20281;-62
2022/01/28 12:31:32;;;;;;;2.00;1.40;;;;;;;5.47;71.00;96772.62;4283064;32;20286;-62
2022/01/28 12:34:00;;;;;;;2.00;1.60;;;;;;;5.53;70.20;96779.63;4311834;32;20312;-62
2022/01/28 12:36:31;;;;;;;2.80;1.50;;;;;;;5.65;69.98;96766.47;4314627;32;20277;-63
2022/01/28 12:39:10;;;;;;;2.90;1.93;;;;;;;5.68;69.82;96775.75;4324417;32;20294;-62
2022/01/28 12:41:43;;;;;;;2.47;1.80;;;;;;;5.57;70.83;96773.91;4296341;32;20282;-62
2022/01/28 12:44:14;;;;;;;2.40;1.70;;;;;;;5.56;70.75;96777.56;4320672;32;20273;-63
2022/01/28 12:46:48;;;;;;;2.40;1.60;;;;;;;5.41;71.86;96773.50;4326833;32;20274;-63
2022/01/28 12:49:13;;;;;;;2.70;1.93;;;;;;;5.37;73.58;96761.84;4312272;32;20280;-63
2022/01/28 12:51:39;;;;;;;3.30;1.67;;;;;;;5.11;73.85;96775.34;4332830;32;20302;-63
2022/01/28 12:54:06;;;;;;;2.57;2.20;;;;;;;5.17;74.09;96774.47;4288560;32;20261;-61
2022/01/28 12:56:44;;;;;;;2.40;2.20;;;;;;;5.13;75.41;96757.53;4334332;32;20354;-63
2022/01/28 12:59:15;;;;;;;17.80;8.60;;;;;;;5.34;74.68;96780.72;4321810;32;20201;-63
2022/01/28 13:01:40;;;;;;;3.63;2.90;;;;;;;5.09;75.40;96785.28;4316324;32;20427;-62
2022/01/28 13:04:15;;;;;;;26.67;13.33;;;;;;;5.08;76.18;96778.41;4314723;32;20285;-63
2022/01/28 13:09:19;;;;;;;15.23;7.60;;;;;;;5.16;76.42;96788.66;4355603;32;20384;-63
2022/01/28 13:11:48;;;;;;;20.67;11.00;;;;;;;5.33;76.98;96784.37;4308820;32;20212;-62
2022/01/28 13:14:18;;;;;;;4.87;4.13;;;;;;;5.50;76.17;96792.41;4341311;32;20293;-62
2022/01/28 13:16:48;;;;;;;6.87;4.90;;;;;;;5.58;75.79;96778.16;4310309;32;20378;-61
2022/01/28 13:19:15;;;;;;;9.03;5.70;;;;;;;5.49;74.53;96775.81;4315952;32;20323;-63
2022/01/28 13:21:47;;;;;;;5.87;2.93;;;;;;;5.33;74.68;96776.47;4329740;32;20289;-64
2022/01/28 13:24:26;;;;;;;2.80;2.60;;;;;;;5.62;74.20;96785.34;4285436;32;20305;-62